KPDX/PDX METAR and TAF weather

Enter ICAO airport designator
Station Type Date Time Source
KPDX METAR 2020/08/05 15:53 UTC NOAA

KPDX 051553Z 32004KT 10SM FEW020 FEW200 19/12 A2999 RMK AO2 SLP154 T01890122


Station Type Date Time Source
KPDX Decoded METAR 2020/08/05 15:53 UTC NOAA

PORTLAND INTERNATIONAL AIRPORT, OR, United States (KPDX) 45-35N 122-36W 7M
Aug 05, 2020 - 11:53 AM EDT / 2020.08.05 1553 UTC
Wind: from the NW (320 degrees) at 5 MPH (4 KT):0
Visibility: 10 mile(s):0
Sky conditions: mostly clear
Temperature: 66.0 F (18.9 C)
Dew Point: 54.0 F (12.2 C)
Relative Humidity: 65%
Pressure (altimeter): 29.99 in. Hg (1015 hPa)
ob: KPDX 051553Z 32004KT 10SM FEW020 FEW200 19/12 A2999 RMK AO2 SLP154 T01890122
cycle: 16

Station Type Date Time Source
KPDX TAF 2020/08/05 15:04 UTC NOAA

TAF
AMD KPDX 051501Z 0515/0612 32005KT P6SM SCT012
FM051700 32009KT P6SM SCT250
FM060300 32006KT P6SM SCT100
FM060900 19006KT P6SM -RA BKN050 OVC100

Example: see airport list